Time;durP1;ratioP1;P1;durP2;ratioP2;P2;SDS_P1;SDS_P2;PMS_P1;PMS_P2;Temp;Humidity;BMP_temperature;BMP_pressure;BME280_temperature;BME280_humidity;BME280_pressure;Samples;Min_cycle;Max_cycle;Signal;HPM_P1;HPM_P2
2021/12/26 00:01:32;;;;;;;15.13;10.00;;;6.40;99.90;;;;;;4985584;28;20439;-50
2021/12/26 00:03:58;;;;;;;16.80;11.03;;;6.30;99.90;;;;;;4981025;28;20193;-54
2021/12/26 00:06:26;;;;;;;15.10;10.70;;;6.30;99.90;;;;;;4983286;28;20205;-53
2021/12/26 00:08:57;;;;;;;15.23;10.70;;;6.30;99.90;;;;;;4983002;28;20943;-53
2021/12/26 00:11:24;;;;;;;15.50;11.20;;;6.40;99.90;;;;;;4982653;28;20522;-48
2021/12/26 00:13:52;;;;;;;12.77;9.13;;;6.40;99.90;;;;;;4980794;28;20888;-52
2021/12/26 00:16:18;;;;;;;17.53;11.90;;;6.50;99.90;;;;;;4981855;28;20977;-53
2021/12/26 00:18:46;;;;;;;15.40;11.83;;;6.50;99.90;;;;;;4985402;28;20428;-52
2021/12/26 00:21:14;;;;;;;15.43;11.77;;;6.60;99.90;;;;;;4980503;28;20194;-52
2021/12/26 00:23:40;;;;;;;15.70;10.87;;;6.60;99.90;;;;;;4988799;28;20585;-52
2021/12/26 00:26:06;;;;;;;13.87;10.93;;;6.50;99.90;;;;;;4987174;28;20546;-52
2021/12/26 00:28:32;;;;;;;17.37;11.77;;;6.40;99.90;;;;;;4985901;28;20188;-54
2021/12/26 00:30:58;;;;;;;15.10;11.37;;;6.40;99.90;;;;;;4988431;28;20585;-53
2021/12/26 00:33:24;;;;;;;16.20;11.63;;;6.40;99.90;;;;;;4985896;28;20476;-50
2021/12/26 00:35:50;;;;;;;18.03;11.63;;;6.40;99.90;;;;;;4983133;28;20202;-50
2021/12/26 00:38:17;;;;;;;16.53;12.57;;;6.50;99.90;;;;;;4985101;28;20445;-52
2021/12/26 00:40:43;;;;;;;17.80;11.77;;;6.50;99.90;;;;;;4981985;28;20955;-51
2021/12/26 00:43:09;;;;;;;15.00;11.60;;;6.30;99.90;;;;;;4985204;28;21012;-53
2021/12/26 00:45:35;;;;;;;13.40;11.30;;;6.30;99.90;;;;;;4984009;28;20458;-52
2021/12/26 00:48:00;;;;;;;15.83;12.37;;;6.20;99.90;;;;;;4989617;28;20694;-54
2021/12/26 00:50:32;;;;;;;14.23;10.80;;;6.40;99.90;;;;;;4986749;28;20828;-50
2021/12/26 00:52:58;;;;;;;14.90;11.27;;;6.50;99.90;;;;;;4987969;28;20309;-48
2021/12/26 00:55:24;;;;;;;16.80;11.83;;;6.40;99.90;;;;;;4987402;28;20534;-50
2021/12/26 00:57:50;;;;;;;15.67;10.63;;;6.40;99.90;;;;;;4988401;28;20437;-50
2021/12/26 01:00:22;;;;;;;14.30;11.77;;;6.30;99.90;;;;;;4982973;28;20818;-50
2021/12/26 01:02:49;;;;;;;14.63;10.50;;;6.30;99.90;;;;;;4987897;28;20541;-47
2021/12/26 01:05:17;;;;;;;16.30;11.00;;;6.10;99.90;;;;;;4982757;28;20477;-50
2021/12/26 01:07:55;;;;;;;16.17;11.53;;;6.20;99.90;;;;;;4983062;28;20444;-53
2021/12/26 01:10:23;;;;;;;14.20;10.80;;;6.20;99.90;;;;;;4986019;28;20550;-53
2021/12/26 01:12:51;;;;;;;13.30;10.90;;;6.20;99.90;;;;;;4983395;28;20444;-50
2021/12/26 01:15:18;;;;;;;14.73;10.80;;;6.20;99.90;;;;;;4986216;28;20456;-48
2021/12/26 01:17:45;;;;;;;14.47;11.43;;;6.20;99.90;;;;;;4967140;28;20429;-53
2021/12/26 01:20:40;;;;;;;15.73;10.67;;;6.30;99.90;;;;;;4986478;28;20439;-52
2021/12/26 01:23:07;;;;;;;15.70;12.00;;;6.00;99.90;;;;;;4983308;28;20552;-50
2021/12/26 01:25:33;;;;;;;15.40;11.17;;;6.10;99.90;;;;;;4982435;28;20516;-49
2021/12/26 01:27:59;;;;;;;15.37;11.40;;;6.20;99.90;;;;;;4982973;28;20470;-51
2021/12/26 01:30:24;;;;;;;13.90;11.03;;;6.10;99.90;;;;;;4982427;28;20571;-51
2021/12/26 01:32:50;;;;;;;13.80;10.10;;;6.10;99.90;;;;;;4982547;28;20186;-48
2021/12/26 01:35:16;;;;;;;14.83;11.43;;;6.00;99.90;;;;;;4988175;28;20276;-51
2021/12/26 01:37:42;;;;;;;14.43;10.83;;;6.20;99.90;;;;;;4984667;28;20220;-49
2021/12/26 01:40:08;;;;;;;14.07;11.80;;;6.20;99.90;;;;;;4984852;28;20450;-51
2021/12/26 01:42:34;;;;;;;12.70;10.87;;;6.20;99.90;;;;;;4985754;28;20503;-54
2021/12/26 01:45:00;;;;;;;17.20;11.97;;;6.30;99.90;;;;;;4982712;28;21238;-49
2021/12/26 01:47:26;;;;;;;15.87;11.90;;;6.20;99.90;;;;;;4984827;28;20440;-52
2021/12/26 01:49:52;;;;;;;15.13;12.07;;;6.30;99.90;;;;;;4986256;28;20185;-50
2021/12/26 01:52:18;;;;;;;14.07;11.00;;;6.30;99.90;;;;;;4981417;28;20498;-52
2021/12/26 01:54:59;;;;;;;15.30;10.77;;;6.30;99.90;;;;;;4987291;28;20558;-49
2021/12/26 01:57:24;;;;;;;14.50;11.10;;;6.20;99.90;;;;;;4982003;28;20443;-53
2021/12/26 01:59:50;;;;;;;14.50;11.10;;;6.30;99.90;;;;;;4967495;28;20433;-47
2021/12/26 02:02:15;;;;;;;16.70;11.23;;;6.20;99.90;;;;;;4984183;28;20584;-51
2021/12/26 02:04:43;;;;;;;12.57;10.77;;;6.20;99.90;;;;;;4983085;28;20273;-51
2021/12/26 02:07:11;;;;;;;13.00;11.30;;;6.20;99.90;;;;;;4984679;28;20189;-51
2021/12/26 02:09:37;;;;;;;16.90;11.67;;;6.20;99.90;;;;;;4983832;28;20439;-50
2021/12/26 02:12:03;;;;;;;15.97;11.27;;;5.80;99.90;;;;;;4981747;28;20950;-51
2021/12/26 02:14:28;;;;;;;17.20;11.13;;;5.90;99.90;;;;;;4985259;28;20522;-49
2021/12/26 02:16:54;;;;;;;18.23;12.30;;;6.00;99.90;;;;;;4986956;28;20534;-48
2021/12/26 02:19:20;;;;;;;18.83;13.57;;;5.90;99.90;;;;;;4986610;28;20182;-49
2021/12/26 02:24:31;;;;;;;16.40;12.30;;;5.90;99.90;;;;;;4983297;28;20194;-51
2021/12/26 02:29:42;;;;;;;17.70;11.70;;;6.10;99.90;;;;;;4982295;28;20448;-47
2021/12/26 02:32:09;;;;;;;18.60;11.00;;;6.10;99.90;;;;;;4968496;28;20441;-50
2021/12/26 02:34:35;;;;;;;14.50;10.70;;;6.20;99.90;;;;;;4985834;28;20534;-46
2021/12/26 02:37:00;;;;;;;12.80;10.80;;;6.20;99.90;;;;;;4985066;28;20471;-46
2021/12/26 02:39:26;;;;;;;14.67;11.00;;;6.20;99.90;;;;;;4982726;28;20436;-48
2021/12/26 02:41:52;;;;;;;15.03;11.40;;;6.20;99.90;;;;;;4979714;28;20194;-48
2021/12/26 02:44:18;;;;;;;17.10;12.33;;;6.40;99.90;;;;;;4967349;28;20189;-51
2021/12/26 02:46:44;;;;;;;17.50;12.63;;;6.30;99.90;;;;;;4981480;28;20262;-49
2021/12/26 02:49:09;;;;;;;14.73;11.50;;;6.30;99.90;;;;;;4982021;28;20448;-52
2021/12/26 02:51:35;;;;;;;13.80;11.23;;;6.20;99.90;;;;;;4984428;28;20487;-49
2021/12/26 02:54:01;;;;;;;14.10;11.33;;;6.00;99.90;;;;;;4980053;28;20224;-49
2021/12/26 02:56:29;;;;;;;14.90;11.37;;;6.00;99.90;;;;;;4966364;28;20820;-48
2021/12/26 02:58:55;;;;;;;17.43;12.30;;;6.00;99.90;;;;;;4986122;28;20444;-49
2021/12/26 03:01:24;;;;;;;14.97;11.07;;;6.10;99.90;;;;;;4982007;28;20792;-48
2021/12/26 03:03:49;;;;;;;14.37;10.33;;;6.10;99.90;;;;;;4983653;28;20193;-51
2021/12/26 03:06:22;;;;;;;13.70;11.03;;;6.10;99.90;;;;;;4980263;28;20491;-51
2021/12/26 03:08:51;;;;;;;17.30;12.20;;;6.20;99.90;;;;;;4981186;28;20202;-51
2021/12/26 03:11:17;;;;;;;13.53;10.57;;;6.20;99.90;;;;;;4984460;28;20436;-49
2021/12/26 03:13:42;;;;;;;14.43;10.13;;;6.20;99.90;;;;;;4981362;28;20491;-52
2021/12/26 03:16:08;;;;;;;13.87;10.73;;;6.20;99.90;;;;;;4986420;28;20581;-50
2021/12/26 03:18:34;;;;;;;14.43;11.20;;;6.30;99.90;;;;;;4983858;28;20562;-51
2021/12/26 03:20:59;;;;;;;16.00;11.80;;;6.30;99.90;;;;;;4980783;28;21981;-52
2021/12/26 03:23:26;;;;;;;16.20;11.10;;;6.30;99.90;;;;;;4966114;28;20193;-50
2021/12/26 03:25:57;;;;;;;15.03;11.70;;;6.30;99.90;;;;;;4977860;28;20221;-51
2021/12/26 03:28:24;;;;;;;16.57;12.07;;;6.30;99.90;;;;;;4978028;28;20448;-52
2021/12/26 03:30:51;;;;;;;13.10;10.90;;;6.30;99.90;;;;;;4982869;28;20490;-54
2021/12/26 03:33:17;;;;;;;15.60;11.10;;;6.30;99.90;;;;;;4982051;28;20548;-52
2021/12/26 03:35:42;;;;;;;14.60;10.93;;;6.20;99.90;;;;;;4986824;28;20602;-52
2021/12/26 03:38:10;;;;;;;17.80;11.47;;;6.20;99.90;;;;;;4981225;28;20613;-52
2021/12/26 03:40:36;;;;;;;17.93;11.00;;;6.30;99.90;;;;;;4984668;28;20649;-50
2021/12/26 03:43:02;;;;;;;14.80;11.37;;;6.40;99.90;;;;;;4982547;28;20870;-50
2021/12/26 03:45:28;;;;;;;19.53;11.97;;;6.30;99.90;;;;;;4980101;28;20503;-50
2021/12/26 03:47:54;;;;;;;13.87;11.20;;;6.10;99.90;;;;;;4980305;28;20439;-46
2021/12/26 03:50:22;;;;;;;16.13;11.80;;;6.10;99.90;;;;;;4977505;28;21018;-51
2021/12/26 03:52:50;;;;;;;17.03;11.90;;;6.10;99.90;;;;;;4983061;28;20239;-52
2021/12/26 03:55:17;;;;;;;16.27;11.67;;;6.10;99.90;;;;;;4979331;28;20448;-48
2021/12/26 03:57:43;;;;;;;14.10;11.60;;;6.10;99.90;;;;;;4984364;28;20490;-48
2021/12/26 04:00:09;;;;;;;18.87;12.57;;;6.30;99.90;;;;;;4988398;28;20432;-53
2021/12/26 04:02:35;;;;;;;15.07;10.47;;;6.30;99.90;;;;;;4989450;28;20178;-52
2021/12/26 04:05:01;;;;;;;13.60;10.77;;;6.20;99.90;;;;;;4986147;28;20848;-50
2021/12/26 04:07:26;;;;;;;15.90;10.40;;;6.10;99.90;;;;;;4983313;28;20621;-52
2021/12/26 04:09:52;;;;;;;15.13;11.27;;;6.20;99.90;;;;;;4977531;28;20193;-52
2021/12/26 04:12:17;;;;;;;15.57;11.70;;;6.20;99.90;;;;;;4980589;28;20264;-53
2021/12/26 04:14:43;;;;;;;16.67;12.27;;;6.30;99.90;;;;;;4987696;28;21102;-51
2021/12/26 04:17:08;;;;;;;16.87;12.27;;;6.20;99.90;;;;;;4988715;28;20252;-49
2021/12/26 04:19:34;;;;;;;14.17;10.83;;;6.20;99.90;;;;;;4989977;28;20192;-52
2021/12/26 04:22:02;;;;;;;17.03;11.60;;;6.20;99.90;;;;;;4985410;28;20669;-48
2021/12/26 04:24:29;;;;;;;16.17;11.73;;;6.00;99.90;;;;;;4985293;28;20291;-50
2021/12/26 04:26:55;;;;;;;16.57;12.20;;;6.10;99.90;;;;;;4987553;28;20801;-50
2021/12/26 04:29:20;;;;;;;14.63;11.63;;;6.20;99.90;;;;;;4985394;28;20441;-50
2021/12/26 04:31:46;;;;;;;13.77;10.90;;;6.20;99.90;;;;;;4987710;28;20272;-53
2021/12/26 04:34:12;;;;;;;16.43;11.80;;;6.00;99.90;;;;;;4984939;28;20682;-50
2021/12/26 04:36:37;;;;;;;15.67;11.87;;;6.00;99.90;;;;;;4988732;28;20189;-53
2021/12/26 04:39:03;;;;;;;16.97;11.83;;;5.90;99.90;;;;;;4988976;28;20190;-49
2021/12/26 04:41:29;;;;;;;17.27;12.07;;;5.90;99.90;;;;;;4984369;28;20197;-48
2021/12/26 04:43:55;;;;;;;14.03;10.70;;;6.10;99.90;;;;;;4982637;28;20808;-53
2021/12/26 04:46:21;;;;;;;15.23;12.00;;;6.00;99.90;;;;;;4983948;28;20216;-53
2021/12/26 04:48:46;;;;;;;15.00;11.50;;;6.00;99.90;;;;;;4971520;28;20197;-48
2021/12/26 04:51:13;;;;;;;14.63;11.53;;;6.20;99.90;;;;;;4989094;28;20435;-50
2021/12/26 04:53:40;;;;;;;16.10;11.47;;;6.20;99.90;;;;;;4983629;28;20201;-51
2021/12/26 04:56:06;;;;;;;16.50;11.03;;;6.20;99.90;;;;;;4988708;28;20441;-48
2021/12/26 04:58:32;;;;;;;16.87;11.93;;;6.20;99.90;;;;;;4984978;28;20465;-50
2021/12/26 05:00:58;;;;;;;18.27;12.30;;;6.30;99.90;;;;;;4987227;28;20432;-52
2021/12/26 05:03:24;;;;;;;18.20;11.90;;;6.20;99.90;;;;;;4989408;28;20451;-48
2021/12/26 05:05:50;;;;;;;14.90;10.37;;;6.10;99.90;;;;;;4988753;28;20750;-51
2021/12/26 05:08:16;;;;;;;18.10;12.73;;;6.10;99.90;;;;;;4989272;28;20428;-52
2021/12/26 05:10:42;;;;;;;18.70;12.57;;;6.00;99.90;;;;;;4984725;28;20185;-54
2021/12/26 05:13:09;;;;;;;16.10;12.33;;;6.10;99.90;;;;;;4987123;28;20527;-50
2021/12/26 05:15:34;;;;;;;14.83;11.10;;;6.10;99.90;;;;;;4991598;28;20897;-51
2021/12/26 05:18:00;;;;;;;12.63;10.80;;;6.20;99.90;;;;;;4986667;28;20433;-52
2021/12/26 05:20:28;;;;;;;15.33;10.93;;;6.30;99.90;;;;;;4992021;28;20848;-52
2021/12/26 05:22:55;;;;;;;12.90;10.57;;;6.30;99.90;;;;;;4986019;28;20431;-47
2021/12/26 05:25:23;;;;;;;16.43;11.83;;;6.30;99.90;;;;;;4987306;28;20468;-49
2021/12/26 05:27:49;;;;;;;13.70;10.33;;;6.40;99.90;;;;;;4984952;28;20653;-49
2021/12/26 05:30:17;;;;;;;15.70;11.73;;;6.30;99.90;;;;;;4983402;28;20428;-50
2021/12/26 05:32:43;;;;;;;14.93;10.90;;;6.30;99.90;;;;;;4986230;28;20460;-48
2021/12/26 05:35:11;;;;;;;15.90;11.13;;;6.20;99.90;;;;;;4986588;28;20482;-48
2021/12/26 05:37:37;;;;;;;19.00;12.20;;;6.20;99.90;;;;;;4984594;28;20894;-48
2021/12/26 05:40:04;;;;;;;14.60;10.93;;;5.90;99.90;;;;;;4989379;28;20466;-48
2021/12/26 05:42:32;;;;;;;13.03;10.63;;;6.10;99.90;;;;;;4984527;28;20461;-49
2021/12/26 05:44:57;;;;;;;17.80;12.77;;;6.20;99.90;;;;;;4984819;28;20555;-50
2021/12/26 05:47:23;;;;;;;14.60;10.93;;;6.30;99.90;;;;;;4984631;28;20524;-50
2021/12/26 05:49:49;;;;;;;14.17;10.20;;;6.20;99.90;;;;;;4985191;28;20280;-51
2021/12/26 05:52:14;;;;;;;15.17;10.87;;;6.20;99.90;;;;;;4989784;28;20189;-51
2021/12/26 05:54:40;;;;;;;15.37;11.57;;;6.10;99.90;;;;;;4984078;28;20555;-49
2021/12/26 05:57:07;;;;;;;17.07;12.10;;;6.10;99.90;;;;;;4986927;28;20220;-49
2021/12/26 05:59:33;;;;;;;17.23;11.47;;;6.20;99.90;;;;;;4987067;28;20173;-48
2021/12/26 06:01:59;;;;;;;15.20;11.40;;;6.00;99.90;;;;;;4989358;28;20441;-47
2021/12/26 06:04:25;;;;;;;14.63;10.67;;;6.10;99.90;;;;;;4987714;28;21095;-51
2021/12/26 06:06:52;;;;;;;14.60;11.57;;;6.20;99.90;;;;;;4984751;28;20436;-49
2021/12/26 06:09:17;;;;;;;16.70;11.60;;;6.10;99.90;;;;;;4983525;28;20307;-48
2021/12/26 06:11:43;;;;;;;16.90;10.23;;;6.00;99.90;;;;;;4985381;28;20512;-49
2021/12/26 06:14:09;;;;;;;12.47;10.10;;;6.10;99.90;;;;;;4981998;28;20209;-48
2021/12/26 06:16:34;;;;;;;13.27;10.30;;;6.30;99.90;;;;;;4986019;28;20686;-53
2021/12/26 06:19:00;;;;;;;14.40;11.33;;;6.30;99.90;;;;;;4984408;28;20185;-48
2021/12/26 06:21:26;;;;;;;16.60;12.27;;;6.40;99.90;;;;;;4988160;28;20186;-49
2021/12/26 06:23:52;;;;;;;16.57;11.03;;;6.30;99.90;;;;;;4984905;28;20212;-52
2021/12/26 06:26:19;;;;;;;16.13;11.30;;;6.30;99.90;;;;;;4984435;28;20758;-49
2021/12/26 06:28:44;;;;;;;18.77;12.10;;;6.20;99.90;;;;;;4973040;28;20477;-48
2021/12/26 06:31:11;;;;;;;17.93;12.17;;;6.20;99.90;;;;;;4983624;28;20519;-51
2021/12/26 06:33:37;;;;;;;14.40;11.13;;;6.20;99.90;;;;;;4988456;28;20703;-48
2021/12/26 06:36:03;;;;;;;15.77;11.67;;;6.20;99.90;;;;;;4984344;28;20502;-51
2021/12/26 06:38:28;;;;;;;16.57;11.83;;;6.20;99.90;;;;;;4985606;28;20444;-49
2021/12/26 06:40:54;;;;;;;19.53;12.00;;;5.90;99.90;;;;;;4985447;28;20433;-52
2021/12/26 06:43:20;;;;;;;12.90;10.17;;;6.00;99.90;;;;;;4970928;28;20182;-48
2021/12/26 06:45:46;;;;;;;15.97;12.00;;;6.00;99.90;;;;;;4984678;28;20229;-50
2021/12/26 06:48:11;;;;;;;14.70;10.43;;;6.20;99.90;;;;;;4983253;28;20235;-50
2021/12/26 06:50:38;;;;;;;14.73;11.27;;;6.00;99.90;;;;;;4988611;28;20264;-48
2021/12/26 06:53:04;;;;;;;18.43;11.97;;;5.80;99.90;;;;;;4984208;28;20273;-48
2021/12/26 06:55:30;;;;;;;17.00;11.30;;;5.90;99.90;;;;;;4983080;28;20453;-51
2021/12/26 06:57:56;;;;;;;18.80;11.20;;;5.90;99.90;;;;;;4990363;28;21066;-51
2021/12/26 07:00:21;;;;;;;18.83;12.10;;;5.90;99.90;;;;;;4986062;28;20193;-49
2021/12/26 07:02:47;;;;;;;17.23;10.93;;;6.10;99.90;;;;;;4985318;28;20186;-50
2021/12/26 07:05:14;;;;;;;17.70;12.10;;;6.00;99.90;;;;;;4985594;28;20386;-51
2021/12/26 07:07:41;;;;;;;15.20;11.07;;;6.10;99.90;;;;;;4982067;28;20510;-54
2021/12/26 07:10:08;;;;;;;20.30;12.37;;;6.10;99.90;;;;;;4985366;28;20433;-50
2021/12/26 07:12:34;;;;;;;16.90;11.30;;;6.00;99.90;;;;;;4984998;28;20598;-52
2021/12/26 07:15:00;;;;;;;19.77;12.67;;;6.00;99.90;;;;;;4982408;28;20466;-53
2021/12/26 07:17:25;;;;;;;16.30;11.63;;;6.00;99.90;;;;;;4984753;28;20313;-50
2021/12/26 07:19:51;;;;;;;14.70;11.30;;;6.00;99.90;;;;;;4983855;28;20228;-50
2021/12/26 07:22:17;;;;;;;18.67;11.60;;;6.10;99.90;;;;;;4968404;28;20209;-49
2021/12/26 07:24:46;;;;;;;18.43;11.77;;;6.10;99.90;;;;;;4988025;28;20456;-51
2021/12/26 07:27:12;;;;;;;17.70;12.10;;;6.20;99.90;;;;;;4978320;28;20186;-48
2021/12/26 07:29:38;;;;;;;22.80;12.63;;;5.90;99.90;;;;;;4963776;28;20867;-50
2021/12/26 07:32:04;;;;;;;19.27;13.50;;;5.90;99.90;;;;;;4982324;28;20451;-49
2021/12/26 07:34:30;;;;;;;16.67;11.60;;;5.90;99.90;;;;;;4977250;28;20513;-47
2021/12/26 07:36:55;;;;;;;18.90;12.30;;;6.00;99.90;;;;;;4978578;28;20437;-49
2021/12/26 07:39:21;;;;;;;17.50;13.10;;;6.10;99.90;;;;;;4981317;28;20232;-52
2021/12/26 07:41:47;;;;;;;16.83;11.63;;;6.20;99.90;;;;;;4981048;28;20183;-52
2021/12/26 07:44:12;;;;;;;17.67;12.90;;;6.10;99.90;;;;;;4961924;28;20216;-48
2021/12/26 07:46:38;;;;;;;20.33;13.60;;;6.20;99.90;;;;;;4981274;28;20870;-49
2021/12/26 07:49:04;;;;;;;16.20;10.87;;;6.20;99.90;;;;;;4982318;28;20186;-48
2021/12/26 07:51:29;;;;;;;18.23;13.07;;;6.20;99.90;;;;;;4980505;28;20290;-51
2021/12/26 07:54:00;;;;;;;16.73;11.17;;;6.30;99.90;;;;;;4981447;28;20261;-54
2021/12/26 07:56:25;;;;;;;18.57;12.47;;;6.10;99.90;;;;;;4979923;28;20201;-48
2021/12/26 07:58:51;;;;;;;16.40;11.60;;;6.10;99.90;;;;;;4981750;28;21022;-54
2021/12/26 08:01:17;;;;;;;14.30;10.50;;;6.20;99.90;;;;;;4982362;28;20455;-52
2021/12/26 08:03:43;;;;;;;16.93;13.00;;;6.20;99.90;;;;;;4978679;28;20222;-50
2021/12/26 08:06:13;;;;;;;18.07;11.40;;;6.20;99.90;;;;;;4981400;28;20460;-48
2021/12/26 08:08:38;;;;;;;20.17;12.30;;;6.20;99.90;;;;;;4979749;28;20455;-51
2021/12/26 08:11:04;;;;;;;21.83;12.97;;;6.20;99.90;;;;;;4977128;28;20443;-50
2021/12/26 08:13:31;;;;;;;17.70;10.80;;;6.30;99.90;;;;;;4978095;28;20694;-49
2021/12/26 08:15:57;;;;;;;19.60;12.80;;;6.30;99.90;;;;;;4976954;28;20472;-53
2021/12/26 08:18:22;;;;;;;19.50;12.07;;;6.20;99.90;;;;;;4981581;28;20433;-50
2021/12/26 08:20:48;;;;;;;19.13;13.27;;;6.30;99.90;;;;;;4979945;28;20440;-47
2021/12/26 08:23:14;;;;;;;19.10;12.60;;;6.40;99.90;;;;;;4980250;28;20206;-49
2021/12/26 08:25:40;;;;;;;17.33;12.27;;;6.40;99.90;;;;;;4941731;28;1133528;-49
2021/12/26 08:28:05;;;;;;;18.23;11.90;;;6.30;99.90;;;;;;4978072;28;20453;-52
2021/12/26 08:30:34;;;;;;;15.67;11.30;;;6.40;99.90;;;;;;4979392;28;20730;-49
2021/12/26 08:33:05;;;;;;;17.40;12.50;;;6.30;99.90;;;;;;4981609;28;20468;-47
2021/12/26 08:35:30;;;;;;;17.10;11.37;;;6.30;99.90;;;;;;4978906;28;20816;-54
2021/12/26 08:37:56;;;;;;;19.53;12.80;;;6.20;99.90;;;;;;4982378;28;20429;-52
2021/12/26 08:40:22;;;;;;;19.20;12.00;;;6.30;99.90;;;;;;4978894;28;20502;-53
2021/12/26 08:42:47;;;;;;;18.47;12.23;;;6.30;99.90;;;;;;4980047;28;21913;-54
2021/12/26 08:45:13;;;;;;;15.87;11.73;;;6.30;99.90;;;;;;4984708;28;20232;-52
2021/12/26 08:47:39;;;;;;;17.27;12.37;;;6.40;99.90;;;;;;4982994;28;20210;-54
2021/12/26 08:50:07;;;;;;;16.03;12.00;;;6.50;99.90;;;;;;4985578;28;20206;-52
2021/12/26 08:52:33;;;;;;;15.30;12.70;;;6.50;99.90;;;;;;4968373;28;20486;-48
2021/12/26 08:54:59;;;;;;;17.00;11.77;;;6.60;99.90;;;;;;4981126;28;20980;-48
2021/12/26 08:57:25;;;;;;;16.07;11.27;;;6.70;99.90;;;;;;4983386;28;20930;-49
2021/12/26 08:59:50;;;;;;;16.60;10.80;;;6.70;99.90;;;;;;4984135;28;20186;-53
2021/12/26 09:02:16;;;;;;;18.37;11.93;;;6.60;99.90;;;;;;4982075;28;20325;-51
2021/12/26 09:04:42;;;;;;;18.10;12.10;;;6.70;99.90;;;;;;4982549;28;20687;-53
2021/12/26 09:07:09;;;;;;;16.80;11.53;;;6.70;99.90;;;;;;4982771;28;20195;-51
2021/12/26 09:09:35;;;;;;;16.47;11.47;;;6.60;99.90;;;;;;4984375;28;20198;-53
2021/12/26 09:12:03;;;;;;;17.17;12.27;;;6.60;99.90;;;;;;4981057;28;20455;-53
2021/12/26 09:14:29;;;;;;;17.73;11.40;;;6.70;99.90;;;;;;4984149;28;20472;-51
2021/12/26 09:16:59;;;;;;;18.20;12.00;;;6.80;99.90;;;;;;4985454;28;20444;-52
2021/12/26 09:19:27;;;;;;;15.60;11.07;;;6.80;99.90;;;;;;4986376;28;20768;-51
2021/12/26 09:21:57;;;;;;;16.23;11.07;;;6.80;99.90;;;;;;4986726;28;20425;-47
2021/12/26 09:24:23;;;;;;;17.90;10.97;;;6.80;99.90;;;;;;4968453;28;20448;-52
2021/12/26 09:26:48;;;;;;;16.33;11.47;;;6.90;99.90;;;;;;4984114;28;20472;-51
2021/12/26 09:29:14;;;;;;;15.70;12.27;;;6.90;99.90;;;;;;4982500;28;20185;-51
2021/12/26 09:31:39;;;;;;;16.90;11.80;;;6.80;99.90;;;;;;4985726;28;20193;-54
2021/12/26 09:34:05;;;;;;;20.10;11.53;;;6.80;99.90;;;;;;4966853;28;20217;-51
2021/12/26 09:36:32;;;;;;;15.70;11.07;;;6.90;99.90;;;;;;4982991;28;20257;-52
2021/12/26 09:38:58;;;;;;;17.40;12.00;;;6.90;99.90;;;;;;4985435;28;20178;-53
2021/12/26 09:41:24;;;;;;;18.33;12.30;;;6.90;99.90;;;;;;4984558;28;20432;-51
2021/12/26 09:43:50;;;;;;;18.13;12.30;;;6.90;99.90;;;;;;4984685;28;21068;-50
2021/12/26 09:46:16;;;;;;;16.90;12.07;;;6.90;99.90;;;;;;4982468;28;20214;-51
2021/12/26 09:48:41;;;;;;;15.90;11.40;;;6.90;99.90;;;;;;4984864;28;20690;-49
2021/12/26 09:51:07;;;;;;;18.00;12.90;;;7.00;99.90;;;;;;4986799;28;20194;-53
2021/12/26 09:53:38;;;;;;;19.10;13.20;;;7.10;99.90;;;;;;4982308;28;20268;-50
2021/12/26 09:56:06;;;;;;;19.10;13.93;;;7.10;99.90;;;;;;4983411;28;20786;-48
2021/12/26 09:58:32;;;;;;;17.53;12.50;;;7.00;99.90;;;;;;4985652;28;21170;-51
2021/12/26 10:00:57;;;;;;;27.10;14.47;;;7.00;99.90;;;;;;4982712;28;20449;-50
2021/12/26 10:03:33;;;;;;;20.73;13.47;;;6.90;99.90;;;;;;4966590;28;20448;-47
2021/12/26 10:06:13;;;;;;;20.13;13.53;;;6.70;99.90;;;;;;4984530;28;20504;-51
2021/12/26 10:08:56;;;;;;;21.50;14.20;;;6.70;99.90;;;;;;4981975;28;20436;-52
2021/12/26 10:11:25;;;;;;;19.07;12.53;;;6.80;99.90;;;;;;4984264;28;20433;-52
2021/12/26 10:13:55;;;;;;;19.53;13.13;;;6.80;99.90;;;;;;4982432;28;20571;-51
2021/12/26 10:16:25;;;;;;;20.83;13.57;;;6.80;99.90;;;;;;4982521;28;20497;-53
2021/12/26 10:18:51;;;;;;;18.90;13.40;;;6.80;99.90;;;;;;4981881;28;20849;-50
2021/12/26 10:21:53;;;;;;;18.63;13.17;;;6.90;99.90;;;;;;4967866;28;20472;-50
2021/12/26 10:24:30;;;;;;;19.37;13.27;;;7.00;99.90;;;;;;4983534;28;20441;-51
2021/12/26 10:26:58;;;;;;;18.67;13.07;;;6.90;99.90;;;;;;4982421;28;20491;-48
2021/12/26 10:29:25;;;;;;;21.30;13.93;;;7.10;99.90;;;;;;4982769;28;20462;-51
2021/12/26 10:32:01;;;;;;;17.50;12.87;;;7.20;99.90;;;;;;4983475;28;20490;-50
2021/12/26 10:34:34;;;;;;;24.53;13.17;;;7.20;99.90;;;;;;4979516;28;20472;-52
2021/12/26 10:37:04;;;;;;;20.17;14.03;;;7.10;99.90;;;;;;4984387;28;20436;-48
2021/12/26 10:39:45;;;;;;;23.90;15.37;;;7.10;99.90;;;;;;4986262;28;20433;-49
2021/12/26 10:42:16;;;;;;;20.23;14.60;;;7.00;99.90;;;;;;4984732;28;20487;-54
2021/12/26 10:44:45;;;;;;;17.93;13.00;;;7.00;99.90;;;;;;4979134;28;20475;-50
2021/12/26 10:47:21;;;;;;;21.03;14.73;;;7.00;99.90;;;;;;4983544;28;20824;-51
2021/12/26 10:49:59;;;;;;;21.83;13.33;;;7.10;99.90;;;;;;4982607;28;20510;-52
2021/12/26 10:52:48;;;;;;;21.70;14.00;;;7.10;99.90;;;;;;4982415;28;21595;-49
2021/12/26 10:55:16;;;;;;;23.33;15.17;;;7.20;99.90;;;;;;4983277;28;20844;-53
2021/12/26 10:57:48;;;;;;;23.30;15.80;;;7.10;99.90;;;;;;4981814;28;20429;-51
2021/12/26 11:00:23;;;;;;;21.17;14.30;;;7.30;99.90;;;;;;4984425;28;20487;-54
2021/12/26 11:03:02;;;;;;;21.53;15.47;;;7.30;99.90;;;;;;4985214;28;20425;-50
2021/12/26 11:05:35;;;;;;;27.03;15.97;;;7.40;99.90;;;;;;4968873;28;20465;-52
2021/12/26 11:08:04;;;;;;;20.50;14.57;;;7.50;99.90;;;;;;4982764;28;20439;-50
2021/12/26 11:10:38;;;;;;;19.30;13.83;;;7.50;99.90;;;;;;4983918;28;20435;-49
2021/12/26 11:13:06;;;;;;;21.80;14.03;;;7.60;99.90;;;;;;4982183;28;20438;-50
2021/12/26 11:15:40;;;;;;;23.87;14.50;;;7.50;99.90;;;;;;4983745;28;20828;-49
2021/12/26 11:18:09;;;;;;;21.33;14.67;;;7.40;99.90;;;;;;4983522;28;20623;-53
2021/12/26 11:20:38;;;;;;;19.17;13.10;;;7.40;99.90;;;;;;4984644;28;20470;-57
2021/12/26 11:23:10;;;;;;;18.33;13.90;;;7.40;99.90;;;;;;4983379;28;20503;-56
2021/12/26 11:25:39;;;;;;;22.60;16.60;;;7.20;99.90;;;;;;4980704;28;20465;-55
2021/12/26 11:28:05;;;;;;;21.97;15.20;;;7.20;99.90;;;;;;4981417;28;20703;-56
2021/12/26 11:30:31;;;;;;;21.80;15.30;;;7.30;99.90;;;;;;4979632;28;20444;-56
2021/12/26 11:32:59;;;;;;;21.30;14.23;;;7.50;99.90;;;;;;4979337;28;20559;-56
2021/12/26 11:35:28;;;;;;;29.47;18.63;;;7.30;99.90;;;;;;4977265;28;20481;-56
2021/12/26 11:37:54;;;;;;;24.87;16.17;;;7.40;99.90;;;;;;4979825;28;20467;-57
2021/12/26 11:40:20;;;;;;;26.47;15.47;;;7.50;99.90;;;;;;4982918;28;20437;-57
2021/12/26 11:43:14;;;;;;;26.40;16.20;;;7.40;99.90;;;;;;4981254;28;20200;-57
2021/12/26 11:45:58;;;;;;;23.37;14.67;;;7.40;99.90;;;;;;4968674;28;20516;-55
2021/12/26 11:48:42;;;;;;;22.93;15.53;;;7.50;99.90;;;;;;4981408;28;20892;-57
2021/12/26 11:51:19;;;;;;;19.93;14.43;;;7.50;99.90;;;;;;4980942;28;20433;-58
2021/12/26 11:54:09;;;;;;;19.20;13.23;;;7.60;99.90;;;;;;4984008;28;20495;-57
2021/12/26 11:56:52;;;;;;;23.80;14.10;;;7.60;99.90;;;;;;4982024;28;20804;-54
2021/12/26 11:59:35;;;;;;;24.30;15.03;;;7.60;99.90;;;;;;4979523;28;20775;-56
2021/12/26 12:02:01;;;;;;;24.10;14.30;;;7.60;99.90;;;;;;4981048;28;21348;-55
2021/12/26 12:04:27;;;;;;;22.17;16.73;;;7.70;99.90;;;;;;4981278;28;20467;-57
2021/12/26 12:06:55;;;;;;;25.30;16.67;;;7.70;99.90;;;;;;4981535;28;20208;-55
2021/12/26 12:09:29;;;;;;;25.40;14.77;;;7.70;99.90;;;;;;4983418;28;20268;-56
2021/12/26 12:12:08;;;;;;;22.97;15.33;;;7.70;99.90;;;;;;4980983;28;20452;-57
2021/12/26 12:14:59;;;;;;;23.83;16.93;;;7.70;99.90;;;;;;4982646;28;20461;-53
2021/12/26 12:17:30;;;;;;;25.30;16.93;;;7.70;99.90;;;;;;4978968;28;20448;-58
2021/12/26 12:20:20;;;;;;;22.10;15.03;;;7.70;99.90;;;;;;4983551;28;20957;-57
2021/12/26 12:23:04;;;;;;;23.40;16.03;;;7.50;99.90;;;;;;4986621;28;20436;-57
2021/12/26 12:25:41;;;;;;;23.10;15.80;;;7.60;99.90;;;;;;4989595;28;20469;-59
2021/12/26 12:28:25;;;;;;;19.50;14.13;;;7.70;99.90;;;;;;4982760;28;20460;-58
2021/12/26 12:31:15;;;;;;;25.47;16.70;;;7.80;99.90;;;;;;4986992;28;20441;-58
2021/12/26 12:33:42;;;;;;;25.20;15.63;;;7.60;99.90;;;;;;4966276;28;20473;-57
2021/12/26 12:36:11;;;;;;;23.43;16.00;;;7.60;99.90;;;;;;4976388;28;20456;-55
2021/12/26 12:38:42;;;;;;;25.87;15.80;;;7.70;99.90;;;;;;4986854;28;20432;-57
2021/12/26 12:41:32;;;;;;;19.83;13.80;;;7.30;99.90;;;;;;4971965;28;20451;-58
2021/12/26 12:44:06;;;;;;;22.40;15.00;;;7.60;99.90;;;;;;4973842;28;20857;-56
2021/12/26 12:46:51;;;;;;;22.33;15.90;;;7.70;99.90;;;;;;4986978;28;20507;-57